createdAt,value
2018-04-12T00:00:25.912Z,20.42
2018-04-12T00:02:53.479Z,22.42
2018-04-12T00:05:21.053Z,21.27
2018-04-12T00:07:48.641Z,28.08
2018-04-12T00:10:16.255Z,25.85
2018-04-12T00:20:05.247Z,19.00
2018-04-12T00:29:54.178Z,20.35
2018-04-12T00:47:05.247Z,12.30
2018-04-12T00:49:33.595Z,13.83
2018-04-12T00:54:29.041Z,12.70
2018-04-12T00:56:56.617Z,17.02
2018-04-12T01:58:18.252Z,16.30
2018-04-12T02:00:45.821Z,14.85
2018-04-12T02:03:13.389Z,15.60
2018-04-12T02:05:40.945Z,15.60
2018-04-12T02:08:08.511Z,16.20
2018-04-12T03:26:44.627Z,14.95
2018-04-12T03:29:12.178Z,13.60
2018-04-12T03:31:39.771Z,11.85
2018-04-12T03:34:07.334Z,9.13
2018-04-12T03:36:34.947Z,7.13
2018-04-12T03:39:02.531Z,9.20
2018-04-12T03:48:52.232Z,10.38
2018-04-12T03:51:19.806Z,13.40
2018-04-12T03:53:47.357Z,9.02
2018-04-12T03:56:15.685Z,9.60
2018-04-12T03:58:43.237Z,10.90
2018-04-12T04:01:10.815Z,15.10
2018-04-12T04:03:38.399Z,13.38
2018-04-12T04:06:05.979Z,9.95
2018-04-12T04:08:33.527Z,14.40
2018-04-12T04:11:01.087Z,18.37
2018-04-12T04:13:28.671Z,11.77
2018-04-12T04:16:08.815Z,14.87
2018-04-12T04:18:48.171Z,13.20
2018-04-12T04:21:17.416Z,13.30
2018-04-12T04:23:44.986Z,13.93
2018-04-12T04:26:12.567Z,15.45
2018-04-12T04:28:40.133Z,19.42
2018-04-12T04:31:07.699Z,12.93
2018-04-12T04:33:35.257Z,28.77
2018-04-12T04:36:02.845Z,34.28
2018-04-12T04:38:30.413Z,16.20
2018-04-12T04:40:58.742Z,20.85
2018-04-12T04:43:26.306Z,17.02
2018-04-12T04:45:53.874Z,14.23
2018-04-12T04:48:21.415Z,17.52
2018-04-12T04:50:49.000Z,17.45
2018-04-12T04:53:16.581Z,21.75
2018-04-12T04:55:44.153Z,17.08
2018-04-12T04:58:11.703Z,19.52
2018-04-12T05:00:39.315Z,22.55
2018-04-12T05:03:07.648Z,14.50
2018-04-12T05:05:35.259Z,16.08
2018-04-12T05:08:03.612Z,13.98
2018-04-12T05:10:31.208Z,10.43
2018-04-12T05:12:59.527Z,11.40
2018-04-12T05:15:27.081Z,13.18
2018-04-12T05:17:54.653Z,7.45
2018-04-12T05:20:22.241Z,13.38
2018-04-12T05:22:49.847Z,10.90
2018-04-12T05:25:18.191Z,7.78
2018-04-12T05:27:45.796Z,8.43
2018-04-12T05:30:14.129Z,10.93
2018-04-12T05:32:41.687Z,8.27
2018-04-12T05:35:09.265Z,6.10
2018-04-12T05:37:36.870Z,11.63
2018-04-12T05:40:05.203Z,12.73
2018-04-12T05:42:32.772Z,5.70
2018-04-12T05:45:00.342Z,13.05
2018-04-12T05:47:27.895Z,13.13
2018-04-12T05:49:55.477Z,13.57
2018-04-12T05:52:23.135Z,13.82
2018-04-12T05:54:50.733Z,10.93
2018-04-12T05:57:18.278Z,9.82
2018-04-12T05:59:45.899Z,6.22
2018-04-12T06:02:13.465Z,15.40
2018-04-12T06:04:41.080Z,11.48
2018-04-12T06:07:09.439Z,13.23
2018-04-12T06:09:38.503Z,10.23
2018-04-12T06:12:06.083Z,13.93
2018-04-12T06:14:33.664Z,13.50
2018-04-12T06:17:01.247Z,7.65
2018-04-12T06:19:28.809Z,10.55
2018-04-12T06:21:56.386Z,9.38
2018-04-12T06:24:23.962Z,12.00
2018-04-12T06:26:52.307Z,15.23
2018-04-12T06:29:19.869Z,13.32
2018-04-12T06:31:47.438Z,5.30
2018-04-12T06:34:15.015Z,11.20
2018-04-12T06:36:42.587Z,14.82
2018-04-12T06:46:32.308Z,6.35
2018-04-12T06:48:59.843Z,22.23
2018-04-12T06:51:27.420Z,9.98
2018-04-12T06:53:54.976Z,11.88
2018-04-12T06:56:22.561Z,9.77
2018-04-12T06:58:50.122Z,6.90
2018-04-12T07:01:17.683Z,8.00
2018-04-12T09:11:25.150Z,14.52
2018-04-12T09:13:52.710Z,8.13
2018-04-12T09:16:20.260Z,11.45
2018-04-12T09:18:48.599Z,5.32
2018-04-12T09:21:16.185Z,6.18
2018-04-12T09:23:43.742Z,10.63
2018-04-12T09:55:39.870Z,8.02
2018-04-12T10:03:01.681Z,6.95
2018-04-12T10:05:30.074Z,10.48
2018-04-12T10:17:52.543Z,12.30
2018-04-12T10:20:20.855Z,10.57
2018-04-12T10:22:48.432Z,12.10
2018-04-12T10:25:16.005Z,17.42
2018-04-12T10:27:43.544Z,7.75
2018-04-12T10:30:11.096Z,5.70
2018-04-12T10:32:38.686Z,9.60
2018-04-12T10:35:06.267Z,11.98
2018-04-12T10:37:33.823Z,8.20
2018-04-12T10:40:01.376Z,18.08
2018-04-12T10:42:28.940Z,12.23
2018-04-12T10:44:56.538Z,14.27
2018-04-12T10:47:24.108Z,7.22
2018-04-12T10:49:51.667Z,16.00
2018-04-12T10:52:19.209Z,17.10
2018-04-12T10:59:41.094Z,16.20
2018-04-12T11:09:30.096Z,39.00
2018-04-12T11:19:19.021Z,18.42
2018-04-12T11:21:46.602Z,19.45
2018-04-12T11:24:14.183Z,13.70
2018-04-12T11:26:41.824Z,25.45
2018-04-12T11:29:09.402Z,16.60
2018-04-12T11:31:37.043Z,14.52
2018-04-12T11:34:04.621Z,9.48
2018-04-12T11:36:32.200Z,14.48
2018-04-12T11:38:59.774Z,13.15
2018-04-12T11:41:27.344Z,19.80
2018-04-12T11:43:54.928Z,20.50
2018-04-12T11:46:22.571Z,20.85
2018-04-12T11:48:50.133Z,11.27
2018-04-12T11:51:17.691Z,12.30
2018-04-12T11:53:45.264Z,11.18
2018-04-12T11:56:12.829Z,12.98
2018-04-12T11:58:41.195Z,12.70
2018-04-12T12:01:10.291Z,19.17
2018-04-12T12:03:37.934Z,14.20
2018-04-12T12:06:05.520Z,15.80
2018-04-12T12:08:33.090Z,10.73
2018-04-12T12:11:00.684Z,16.03
2018-04-12T12:13:29.027Z,10.93
2018-04-12T12:15:56.614Z,25.97
2018-04-12T12:18:24.172Z,9.73
2018-04-12T12:20:51.752Z,11.65
2018-04-12T12:23:20.089Z,25.35
2018-04-12T12:25:47.654Z,11.93
2018-04-12T12:28:15.727Z,15.10
2018-04-12T12:30:43.299Z,13.93
2018-04-12T12:33:11.167Z,7.50
2018-04-12T12:35:38.723Z,8.95
2018-04-12T12:38:06.272Z,7.93
2018-04-12T12:40:33.831Z,17.75
2018-04-12T12:43:01.374Z,20.23
2018-04-12T12:45:29.721Z,12.00
2018-04-12T12:47:57.352Z,16.62
2018-04-12T12:50:24.937Z,10.05
2018-04-12T12:52:52.504Z,14.57
2018-04-12T12:55:21.117Z,17.03
2018-04-12T12:57:48.764Z,28.40
2018-04-12T13:00:16.348Z,15.70
2018-04-12T13:02:43.902Z,15.83
2018-04-12T13:05:11.507Z,13.07
2018-04-12T13:07:39.096Z,10.83
2018-04-12T13:10:06.684Z,17.00
2018-04-12T13:12:34.282Z,23.92
2018-04-12T13:15:02.612Z,15.57
2018-04-12T13:17:30.172Z,11.20
2018-04-12T13:19:57.810Z,17.83
2018-04-12T13:22:25.383Z,25.73
2018-04-12T13:24:52.967Z,11.43
2018-04-12T13:27:20.573Z,18.83
2018-04-12T13:29:48.167Z,14.10
2018-04-12T13:32:16.542Z,23.40
2018-04-12T13:34:44.885Z,15.17
2018-04-12T13:37:12.464Z,18.23
2018-04-12T13:39:40.029Z,9.43
2018-04-12T13:42:07.601Z,19.43
2018-04-12T13:44:35.180Z,15.23
2018-04-12T13:47:02.779Z,21.33
2018-04-12T13:49:30.329Z,20.33
2018-04-12T13:51:57.944Z,12.80
2018-04-12T13:54:25.525Z,13.00
2018-04-12T13:56:53.119Z,12.60
2018-04-12T13:59:21.435Z,14.40
2018-04-12T14:01:49.039Z,24.67
2018-04-12T14:04:16.616Z,11.30
2018-04-12T14:06:44.953Z,19.27
2018-04-12T14:09:12.510Z,14.83
2018-04-12T14:11:40.060Z,18.70
2018-04-12T14:14:08.276Z,15.00
2018-04-12T14:16:35.936Z,8.10
2018-04-12T14:19:03.518Z,16.83
2018-04-12T14:21:31.109Z,18.83
2018-04-12T14:23:59.465Z,12.47
2018-04-12T14:26:27.039Z,11.53
2018-04-12T14:28:54.619Z,18.30
2018-04-12T14:31:22.972Z,11.33
2018-04-12T14:33:50.600Z,16.87
2018-04-12T14:36:18.989Z,16.50
2018-04-12T14:38:47.274Z,18.67
2018-04-12T14:41:14.901Z,16.08
2018-04-12T14:43:42.539Z,14.63
2018-04-12T14:46:10.900Z,12.70
2018-04-12T14:48:38.527Z,24.07
2018-04-12T14:51:06.160Z,18.33
2018-04-12T14:53:33.800Z,16.40
2018-04-12T14:56:01.389Z,12.90
2018-04-12T14:58:28.981Z,20.00
2018-04-12T15:00:56.592Z,28.67
2018-04-12T15:03:24.177Z,18.02
2018-04-12T15:05:51.772Z,21.10
2018-04-12T15:08:19.366Z,9.50
2018-04-12T15:10:46.952Z,14.50
2018-04-12T15:13:14.528Z,28.30
2018-04-12T15:15:42.134Z,12.87
2018-04-12T15:18:09.756Z,14.43
2018-04-12T15:20:37.352Z,27.90
2018-04-12T15:23:05.712Z,17.80
2018-04-12T15:25:33.303Z,9.60
2018-04-12T15:28:00.906Z,14.07
2018-04-12T15:30:28.535Z,16.33
2018-04-12T15:32:56.186Z,17.52
2018-04-12T15:35:24.547Z,16.58
2018-04-12T15:37:52.122Z,15.43
2018-04-12T15:40:19.691Z,15.75
2018-04-12T15:42:47.248Z,12.50
2018-04-12T15:45:14.831Z,11.32
2018-04-12T15:47:43.188Z,11.50
2018-04-12T15:50:10.810Z,17.33
2018-04-12T15:52:38.439Z,15.05
2018-04-12T15:55:06.794Z,12.75
2018-04-12T15:57:34.434Z,17.25
2018-04-12T16:00:01.987Z,19.02
2018-04-12T16:02:29.593Z,13.82
2018-04-12T16:04:57.142Z,17.83
2018-04-12T16:07:24.750Z,18.60
2018-04-12T16:09:52.315Z,14.70
2018-04-12T16:12:20.693Z,18.05
2018-04-12T16:14:50.275Z,17.37
2018-04-12T16:17:17.878Z,20.03
2018-04-12T16:19:46.242Z,18.30
2018-04-12T16:22:13.812Z,20.90
2018-04-12T16:24:41.375Z,18.73
2018-04-12T16:27:08.999Z,20.75
2018-04-12T16:29:37.327Z,13.38
2018-04-12T16:32:04.930Z,26.33
2018-04-12T16:34:32.541Z,32.15
2018-04-12T16:37:00.113Z,26.62
2018-04-12T16:39:27.688Z,24.55
2018-04-12T16:41:56.010Z,28.42
2018-04-12T16:44:23.885Z,27.62
2018-04-12T16:46:51.452Z,35.90
2018-04-12T16:49:19.078Z,26.35
2018-04-12T16:51:47.517Z,27.15
2018-04-12T16:54:15.141Z,30.58
2018-04-12T16:56:42.774Z,28.33
2018-04-12T16:59:10.456Z,46.45
2018-04-12T17:01:38.839Z,32.35
2018-04-12T17:04:07.321Z,41.72
2018-04-12T17:06:35.659Z,27.33
2018-04-12T17:09:03.331Z,29.73
2018-04-12T17:11:30.946Z,88.43
2018-04-12T17:13:59.334Z,56.65
2018-04-12T17:16:27.831Z,28.80
2018-04-12T17:18:55.428Z,26.70
2018-04-12T17:21:23.119Z,24.70
2018-04-12T17:23:54.456Z,34.80
2018-04-12T17:26:22.235Z,26.75
2018-04-12T17:28:50.708Z,31.20
2018-04-12T17:31:19.114Z,28.58
2018-04-12T17:33:46.940Z,35.72
2018-04-12T17:36:31.587Z,33.53
2018-04-12T17:38:59.884Z,20.58
2018-04-12T17:41:27.521Z,40.30
2018-04-12T17:43:55.252Z,38.05
2018-04-12T17:46:22.841Z,37.92
2018-04-12T17:48:51.212Z,18.00
2018-04-12T17:51:18.789Z,22.90
2018-04-12T17:53:47.239Z,30.50
2018-04-12T17:56:15.620Z,38.95
2018-04-12T17:58:45.250Z,30.20
2018-04-12T18:01:13.605Z,28.45
2018-04-12T18:03:41.460Z,33.85
2018-04-12T18:06:09.084Z,36.63
2018-04-12T18:08:37.526Z,31.00
2018-04-12T18:11:05.174Z,30.75
2018-04-12T18:13:32.921Z,18.77
2018-04-12T18:16:01.389Z,37.88
2018-04-12T18:18:29.994Z,18.12
2018-04-12T18:20:57.615Z,36.60
2018-04-12T18:23:25.212Z,27.50
2018-04-12T18:25:52.804Z,35.00
2018-04-12T18:28:20.464Z,18.05
2018-04-12T18:30:48.054Z,26.33
2018-04-12T18:33:15.648Z,26.87
2018-04-12T18:35:43.247Z,31.75
2018-04-12T18:38:10.860Z,20.08
2018-04-12T18:40:38.449Z,23.67
2018-04-12T18:43:06.045Z,27.85
2018-04-12T18:45:33.748Z,28.33
2018-04-12T18:48:01.365Z,34.78
2018-04-12T18:50:30.757Z,28.52
2018-04-12T18:52:59.174Z,32.47
2018-04-12T18:55:26.808Z,30.85
2018-04-12T18:57:55.178Z,29.52
2018-04-12T19:00:23.595Z,33.35
2018-04-12T19:02:52.266Z,28.50
2018-04-12T19:05:20.641Z,33.95
2018-04-12T19:07:49.041Z,22.33
2018-04-12T19:10:18.875Z,24.17
2018-04-12T19:12:46.468Z,40.85
2018-04-12T19:15:14.052Z,31.95
2018-04-12T19:17:41.624Z,40.50
2018-04-12T19:20:09.278Z,26.35
2018-04-12T19:22:36.900Z,17.65
2018-04-12T19:25:04.563Z,17.27
2018-04-12T19:27:32.160Z,33.30
2018-04-12T19:29:59.768Z,24.15
2018-04-12T19:32:28.121Z,38.13
2018-04-12T19:34:55.705Z,40.67
2018-04-12T19:37:23.321Z,36.40
2018-04-12T19:39:50.903Z,41.20
2018-04-12T19:42:18.506Z,35.65
2018-04-12T19:44:46.863Z,26.55
2018-04-12T19:47:14.467Z,29.70
2018-04-12T19:49:43.055Z,34.88
2018-04-12T19:52:11.539Z,33.58
2018-04-12T19:54:40.543Z,34.15
2018-04-12T19:57:08.192Z,38.78
2018-04-12T19:59:35.752Z,31.87
2018-04-12T20:02:03.397Z,23.30
2018-04-12T20:04:31.027Z,36.33
2018-04-12T20:06:58.627Z,31.25
2018-04-12T20:09:26.252Z,47.75
2018-04-12T20:11:53.828Z,29.52
2018-04-12T20:14:26.666Z,35.55
2018-04-12T20:16:55.068Z,27.20
2018-04-12T20:19:22.706Z,28.52
2018-04-12T20:21:50.274Z,23.67
2018-04-12T20:24:17.840Z,29.35
2018-04-12T20:26:45.421Z,23.05
2018-04-12T20:29:13.017Z,30.33
2018-04-12T20:31:40.629Z,33.78
2018-04-12T20:34:08.217Z,30.58
2018-04-12T20:36:35.814Z,25.75
2018-04-12T20:39:03.443Z,24.23
2018-04-12T20:41:31.044Z,31.52
2018-04-12T20:43:58.645Z,19.40
2018-04-12T20:46:26.277Z,22.95
2018-04-12T20:48:53.853Z,33.75
2018-04-12T20:51:21.475Z,26.48
2018-04-12T20:53:49.073Z,28.40
2018-04-12T20:56:16.735Z,23.20
2018-04-12T20:58:44.322Z,35.83
2018-04-12T21:01:11.938Z,28.90
2018-04-12T21:03:40.479Z,28.23
2018-04-12T21:06:08.060Z,22.58
2018-04-12T21:08:35.617Z,16.98
2018-04-12T21:11:03.217Z,34.33
2018-04-12T21:13:30.812Z,34.95
2018-04-12T21:15:58.407Z,26.87
2018-04-12T21:18:26.774Z,19.55
2018-04-12T21:20:54.361Z,41.70
2018-04-12T21:23:21.960Z,30.17
2018-04-12T21:25:49.533Z,24.33
2018-04-12T21:28:17.129Z,26.92
2018-04-12T21:30:44.719Z,26.35
2018-04-12T21:33:12.296Z,22.10
2018-04-12T21:35:39.885Z,28.95
2018-04-12T21:38:07.489Z,24.25
2018-04-12T21:40:35.135Z,15.13
2018-04-12T21:43:02.733Z,24.40
2018-04-12T21:45:30.336Z,18.80
2018-04-12T21:47:58.667Z,18.35
2018-04-12T21:50:26.243Z,24.98
2018-04-12T21:52:53.833Z,14.05
2018-04-12T21:55:21.416Z,15.15
2018-04-12T21:57:49.017Z,29.98
2018-04-12T22:00:16.611Z,36.22
2018-04-12T22:02:44.180Z,22.23
2018-04-12T22:05:11.751Z,22.67
2018-04-12T22:07:39.415Z,25.73
2018-04-12T22:10:06.981Z,25.17
2018-04-12T22:12:34.720Z,25.88
2018-04-12T22:15:02.313Z,20.00
2018-04-12T22:17:29.901Z,15.45
2018-04-12T22:19:57.492Z,27.80
2018-04-12T22:22:27.050Z,19.25
2018-04-12T22:24:54.631Z,23.30
2018-04-12T22:27:22.987Z,23.12
2018-04-12T22:29:50.568Z,16.35
2018-04-12T22:32:18.929Z,19.02
2018-04-12T22:34:46.514Z,27.65
2018-04-12T22:37:14.098Z,21.52
2018-04-12T22:39:41.674Z,24.85
2018-04-12T22:42:09.262Z,25.90
2018-04-12T22:44:36.814Z,19.95
2018-04-12T22:47:04.475Z,26.15
2018-04-12T22:49:32.059Z,18.08
2018-04-12T22:51:59.640Z,21.77
2018-04-12T22:54:27.269Z,18.80
2018-04-12T22:56:54.894Z,15.90
2018-04-12T22:59:22.464Z,26.15
2018-04-12T23:01:50.036Z,20.60
2018-04-12T23:04:18.981Z,19.67
2018-04-12T23:06:46.574Z,26.85
2018-04-12T23:09:14.135Z,18.27
2018-04-12T23:11:41.725Z,20.95
2018-04-12T23:14:10.121Z,16.00
2018-04-12T23:16:38.528Z,13.55
2018-04-12T23:19:06.070Z,23.15
2018-04-12T23:21:34.396Z,24.73
2018-04-12T23:24:01.980Z,12.70
2018-04-12T23:26:29.547Z,25.48
2018-04-12T23:28:57.139Z,17.27
2018-04-12T23:31:25.492Z,18.83
2018-04-12T23:33:53.841Z,21.23
2018-04-12T23:36:21.423Z,18.73
2018-04-12T23:38:49.016Z,20.00
2018-04-12T23:41:17.362Z,15.85
2018-04-12T23:43:44.929Z,26.00
2018-04-12T23:46:12.497Z,26.05
2018-04-12T23:48:40.115Z,21.12
2018-04-12T23:51:07.988Z,22.48
2018-04-12T23:53:35.584Z,18.42
2018-04-12T23:56:03.138Z,27.25
2018-04-12T23:58:30.766Z,34.05
